首页
METAR-TAF:

METAR-TAF

机场 :

Durango-La Plata County Airport

杜兰戈, 科羅拉多州, 美国

纬度: 37-08-35N, 经度: 107-45-35W, 海拔: 2038米

当前天气观测

该预报发布于21分钟前的05:53 UTC
风速4节,风向
温度 9°C
湿度 43%
气压 1014 hPa
能見度: 16.1公里
天空无云

METAR: KDRO 250553Z AUTO 35004KT 10SM CLR 09/M03 A2995 RMK AO2 SLP075 T00891028 10222 20078 51007

时间: 00:14 (06:14 UTC)

预报

该预报发布于54分钟前的05:20 UTC
预报有效从25日的 06点(UTC)到 26日的 06点(UTC)
风速5节,风向西转西北
能見度: 10公里
少量云层高于12000英尺
从 25日的 1600点(UTC)
风速12节,风向西南,有时为20节阵风
能見度: 10公里
少量云层高于9000英尺
少量云层高于25000英尺
从 25日的 2100点(UTC)
风速20节,风向西,有时为33节阵风
能見度: 10公里
少量云层高于9000英尺
散云层高于20000英尺

TAF: KDRO 250520Z 2506/2606 29005KT P6SM FEW120 FM251600 23012G20KT P6SM FEW090 FEW250 FM252100 26020G33KT P6SM FEW090 SCT200

超过4000个机场的气象观测和天气预报(METAR&TAF报告)。

可查询的气象台以黄色和红色小点在地图上表示。

将鼠标移到小点上方,可查看气象台名称。

然后点击查看天气观测和预报。

如需切换地图:点击带黑十字的绿色按钮放大地图;点击带横线的绿色按钮缩小地图;或者点击绿色箭头查看邻近地区的地图。


METAR-TAF: